Time;durP1;ratioP1;P1;durP2;ratioP2;P2;SDS_P1;SDS_P2;PMS_P1;PMS_P2;Temp;Humidity;BMP_temperature;BMP_pressure;BME280_temperature;BME280_humidity;BME280_pressure;Samples;Min_cycle;Max_cycle;Signal;HPM_P1;HPM_P2
2022/12/23 00:02:01;;;;;;;;;;;20.90;86.40;;;;;;5093684;28;19912;-48
2022/12/23 00:04:27;;;;;;;;;;;20.80;86.50;;;;;;5093778;28;20398;-43
2022/12/23 00:06:52;;;;;;;;;;;20.80;86.60;;;;;;5093986;28;19961;-44
2022/12/23 00:09:18;;;;;;;;;;;20.80;86.60;;;;;;5093780;28;19912;-44
2022/12/23 00:15:04;;;;;;;;;;;20.90;86.70;;;;;;5079142;28;19916;-46
2022/12/23 00:17:13;;;;;;;;;;;20.80;86.60;;;;;;5097907;28;19931;-45
2022/12/23 00:19:38;;;;;;;;;;;20.80;86.60;;;;;;5098103;28;20338;-43
2022/12/23 00:22:04;;;;;;;;;;;20.80;86.60;;;;;;5097710;28;19960;-46
2022/12/23 00:24:29;;;;;;;;;;;20.80;86.50;;;;;;5098111;28;19912;-46
2022/12/23 00:26:55;;;;;;;;;;;20.80;86.50;;;;;;5097625;28;19908;-49
2022/12/23 00:29:20;;;;;;;;;;;20.80;86.50;;;;;;5097192;28;19916;-45
2022/12/23 00:31:45;;;;;;;;;;;20.80;86.60;;;;;;5097166;28;19914;-44
2022/12/23 00:34:11;;;;;;;;;;;20.80;86.50;;;;;;5097250;28;20276;-44
2022/12/23 00:36:37;;;;;;;;;;;20.80;86.50;;;;;;5097360;28;19908;-44
2022/12/23 00:44:31;;;;;;;;;;;20.80;86.50;;;;;;5097094;28;19930;-48
2022/12/23 00:46:56;;;;;;;;;;;20.80;86.60;;;;;;5096820;28;19908;-44
2022/12/23 00:52:07;;;;;;;;;;;20.80;86.70;;;;;;5096883;28;19935;-45
2022/12/23 00:54:32;;;;;;;;;;;20.80;86.70;;;;;;5096596;28;19909;-43
2022/12/23 00:56:58;;;;;;;;;;;20.80;86.70;;;;;;5078968;28;19915;-44
2022/12/23 00:59:24;;;;;;;;;;;20.80;86.70;;;;;;5096885;28;19912;-49
2022/12/23 01:07:18;;;;;;;;;;;20.80;86.90;;;;;;5096960;28;19954;-44
2022/12/23 01:09:44;;;;;;;;;;;20.80;86.80;;;;;;5096483;28;19955;-44
2022/12/23 01:12:09;;;;;;;;;;;20.80;86.70;;;;;;5096635;28;20358;-43
2022/12/23 01:14:35;;;;;;;;;;;20.80;86.50;;;;;;5096459;28;19915;-48
2022/12/23 01:17:00;;;;;;;;;;;20.90;86.40;;;;;;5096568;28;19938;-43
2022/12/23 01:19:26;;;;;;;;;;;20.80;86.50;;;;;;5078473;28;20266;-43
2022/12/23 01:21:52;;;;;;;;;;;20.90;86.40;;;;;;5077810;28;19990;-46
2022/12/23 01:24:17;;;;;;;;;;;20.90;86.50;;;;;;5078372;28;19908;-44
2022/12/23 01:26:43;;;;;;;;;;;20.90;86.50;;;;;;5096518;28;19914;-43
2022/12/23 01:29:08;;;;;;;;;;;20.80;86.40;;;;;;5096054;28;19908;-44
2022/12/23 01:31:34;;;;;;;;;;;20.80;86.30;;;;;;5096145;28;19923;-44
2022/12/23 01:33:59;;;;;;;;;;;20.80;86.40;;;;;;5096405;28;19915;-48
2022/12/23 01:36:25;;;;;;;;;;;20.80;86.40;;;;;;5096049;28;19908;-43
2022/12/23 01:38:50;;;;;;;;;;;20.80;86.50;;;;;;5096389;28;19920;-43
2022/12/23 01:42:42;;;;;;;;;;;20.80;86.50;;;;;;5096214;28;19912;-44
2022/12/23 01:44:02;;;;;;;;;;;20.80;86.50;;;;;;5095775;28;19908;-45
2022/12/23 01:46:28;;;;;;;;;;;20.80;86.50;;;;;;5096122;28;19961;-43
2022/12/23 01:48:54;;;;;;;;;;;20.80;86.50;;;;;;5095994;28;19972;-44
2022/12/23 01:51:23;;;;;;;;;;;20.80;86.50;;;;;;5095400;28;19916;-47
2022/12/23 01:53:51;;;;;;;;;;;20.80;86.50;;;;;;5096161;28;20022;-46
2022/12/23 01:56:23;;;;;;;;;;;20.80;86.50;;;;;;5077639;28;19908;-43
2022/12/23 01:58:54;;;;;;;;;;;20.80;86.40;;;;;;5095612;28;19916;-44
2022/12/23 02:04:05;;;;;;;;;;;20.80;86.50;;;;;;5096102;28;20390;-43
2022/12/23 02:09:24;;;;;;;;;;;20.70;86.50;;;;;;5095580;28;20278;-43
2022/12/23 02:12:08;;;;;;;;;;;20.70;86.60;;;;;;5095168;28;19947;-46
2022/12/23 02:17:31;;;;;;;;;;;20.70;86.60;;;;;;5080221;28;20372;-43
2022/12/23 02:20:15;;;;;;;;;;;20.70;86.60;;;;;;5095116;28;19908;-45
2022/12/23 02:22:43;;;;;;;;;;;20.70;86.80;;;;;;5095133;28;19915;-43
2022/12/23 02:25:11;;;;;;;;;;;20.70;86.80;;;;;;5095078;28;19919;-46
2022/12/23 02:27:55;;;;;;;;;;;20.70;86.90;;;;;;5095028;28;19990;-43
2022/12/23 02:30:33;;;;;;;;;;;20.80;86.70;;;;;;5095192;28;19912;-44
2022/12/23 02:33:14;;;;;;;;;;;20.80;86.80;;;;;;5094117;28;19995;-46
2022/12/23 02:35:40;;;;;;;;;;;20.80;86.70;;;;;;5095336;28;19961;-43
2022/12/23 02:38:22;;;;;;;;;;;20.80;86.70;;;;;;5094792;28;19920;-45
2022/12/23 02:40:54;;;;;;;;;;;20.80;86.70;;;;;;5094845;28;19961;-46
2022/12/23 02:43:26;;;;;;;;;;;20.70;86.70;;;;;;5094522;28;20351;-43
2022/12/23 02:46:07;;;;;;;;;;;20.80;86.80;;;;;;5076606;28;19951;-44
2022/12/23 02:48:33;;;;;;;;;;;20.70;86.80;;;;;;5094715;28;19977;-43
2022/12/23 02:51:00;;;;;;;;;;;20.70;86.60;;;;;;5076521;28;20347;-43
2022/12/23 02:53:28;;;;;;;;;;;20.80;86.70;;;;;;5094820;28;19912;-48
2022/12/23 02:55:53;;;;;;;;;;;20.80;86.60;;;;;;5094514;28;19908;-44
2022/12/23 02:58:21;;;;;;;;;;;20.80;86.60;;;;;;5094514;28;19914;-43
2022/12/23 03:00:47;;;;;;;;;;;20.80;86.60;;;;;;5076259;28;19908;-43
2022/12/23 03:03:16;;;;;;;;;;;20.70;86.50;;;;;;5094447;28;19915;-46
2022/12/23 03:05:42;;;;;;;;;;;20.70;86.50;;;;;;5094627;28;19912;-44
2022/12/23 03:08:13;;;;;;;;;;;20.70;86.40;;;;;;5076136;28;19912;-44
2022/12/23 03:10:38;;;;;;;;;;;20.70;86.50;;;;;;5094068;28;19938;-43
2022/12/23 03:13:22;;;;;;;;;;;20.70;86.50;;;;;;5094610;28;19912;-48
2022/12/23 03:15:56;;;;;;;;;;;20.70;86.60;;;;;;5094216;28;20355;-46
2022/12/23 03:18:24;;;;;;;;;;;20.70;86.50;;;;;;5094517;28;19908;-49
2022/12/23 03:20:56;;;;;;;;;;;20.70;86.60;;;;;;5076337;28;19969;-43
2022/12/23 03:23:27;;;;;;;;;;;20.70;86.50;;;;;;5094364;28;19908;-46
2022/12/23 03:26:06;;;;;;;;;;;20.70;86.50;;;;;;5094280;28;19939;-45
2022/12/23 03:28:50;;;;;;;;;;;20.70;86.40;;;;;;5094809;28;19930;-43
2022/12/23 03:31:17;;;;;;;;;;;20.80;86.50;;;;;;5091753;28;19961;-45
2022/12/23 03:33:45;;;;;;;;;;;20.80;85.80;;;;;;5093070;28;20332;-48
2022/12/23 03:36:29;;;;;;;;;;;20.80;86.00;;;;;;5094072;28;19915;-43
2022/12/23 03:38:56;;;;;;;;;;;20.80;86.10;;;;;;5094460;28;19998;-45
2022/12/23 03:41:25;;;;;;;;;;;20.80;86.00;;;;;;5093876;28;19912;-43
2022/12/23 03:43:56;;;;;;;;;;;20.80;86.50;;;;;;5094222;28;19986;-46
2022/12/23 03:46:42;;;;;;;;;;;20.80;86.40;;;;;;5098180;28;19908;-43
2022/12/23 03:49:13;;;;;;;;;;;20.80;86.40;;;;;;5080559;28;19953;-44
2022/12/23 03:51:52;;;;;;;;;;;20.70;86.40;;;;;;5093808;28;20378;-43
2022/12/23 03:54:20;;;;;;;;;;;20.70;86.30;;;;;;5098218;28;19998;-43
2022/12/23 03:56:49;;;;;;;;;;;20.70;86.60;;;;;;5097924;28;19908;-44
2022/12/23 03:59:26;;;;;;;;;;;20.70;86.60;;;;;;5098039;28;19908;-44
2022/12/23 04:02:10;;;;;;;;;;;20.70;86.50;;;;;;5097839;28;19984;-43
2022/12/23 04:04:44;;;;;;;;;;;20.70;86.50;;;;;;5087346;28;19915;-43
2022/12/23 04:07:14;;;;;;;;;;;20.80;86.20;;;;;;5095891;28;19912;-45
2022/12/23 04:09:41;;;;;;;;;;;20.80;86.50;;;;;;5097518;28;19999;-43
2022/12/23 04:12:07;;;;;;;;;;;20.80;86.50;;;;;;5079714;28;19916;-45
2022/12/23 04:14:33;;;;;;;;;;;20.80;86.40;;;;;;5098080;28;19916;-43
2022/12/23 04:16:59;;;;;;;;;;;20.80;87.00;;;;;;5097877;28;19908;-44
2022/12/23 04:19:24;;;;;;;;;;;20.80;86.50;;;;;;5097573;28;19943;-45
2022/12/23 04:21:50;;;;;;;;;;;20.80;86.60;;;;;;5097461;28;20317;-44
2022/12/23 04:24:15;;;;;;;;;;;20.80;86.30;;;;;;5097727;28;19912;-44
2022/12/23 04:26:41;;;;;;;;;;;20.80;86.00;;;;;;5079293;28;19914;-46
2022/12/23 04:29:06;;;;;;;;;;;20.80;85.80;;;;;;5096169;28;19908;-44
2022/12/23 04:31:32;;;;;;;;;;;20.80;86.20;;;;;;5084212;28;19967;-45
2022/12/23 04:33:57;;;;;;;;;;;20.80;85.70;;;;;;5097763;28;19908;-46
2022/12/23 04:36:23;;;;;;;;;;;20.80;85.80;;;;;;5097155;28;19912;-44
2022/12/23 04:38:48;;;;;;;;;;;20.80;86.00;;;;;;5097163;28;19965;-43
2022/12/23 04:41:13;;;;;;;;;;;20.80;86.00;;;;;;5097478;28;20274;-43
2022/12/23 04:43:39;;;;;;;;;;;20.80;86.20;;;;;;5097119;28;20416;-44
2022/12/23 04:46:04;;;;;;;;;;;20.80;86.30;;;;;;5097302;28;19908;-43
2022/12/23 04:48:30;;;;;;;;;;;20.80;86.50;;;;;;5096283;28;19918;-44
2022/12/23 04:50:55;;;;;;;;;;;20.80;86.50;;;;;;5093827;28;20270;-45
2022/12/23 04:53:21;;;;;;;;;;;20.80;86.50;;;;;;5087326;28;20006;-44
2022/12/23 04:55:50;;;;;;;;;;;20.70;86.30;;;;;;5095832;28;19908;-47
2022/12/23 04:58:15;;;;;;;;;;;20.80;86.60;;;;;;5078814;28;19908;-43
2022/12/23 05:00:41;;;;;;;;;;;20.80;86.70;;;;;;5097025;28;19951;-47
2022/12/23 05:03:06;;;;;;;;;;;20.70;86.60;;;;;;5097274;28;19908;-44
2022/12/23 05:05:32;;;;;;;;;;;20.70;86.60;;;;;;5094261;28;19957;-41
2022/12/23 05:08:01;;;;;;;;;;;20.70;86.50;;;;;;5094003;28;19908;-43
2022/12/23 05:10:27;;;;;;;;;;;20.60;82.50;;;;;;5091217;28;19924;-43
2022/12/23 05:12:52;;;;;;;;;;;20.60;84.20;;;;;;5095088;28;19924;-45
2022/12/23 05:15:18;;;;;;;;;;;20.70;85.10;;;;;;5093700;28;19912;-42
2022/12/23 05:17:43;;;;;;;;;;;20.70;85.20;;;;;;5094625;28;20482;-42
2022/12/23 05:20:09;;;;;;;;;;;20.70;85.20;;;;;;5093812;28;19920;-45
2022/12/23 05:22:34;;;;;;;;;;;20.80;85.30;;;;;;5094686;28;19919;-50
2022/12/23 05:25:00;;;;;;;;;;;20.80;85.30;;;;;;5093401;28;20146;-43
2022/12/23 05:27:25;;;;;;;;;;;20.80;85.50;;;;;;5094460;28;20377;-47
2022/12/23 05:29:50;;;;;;;;;;;20.80;85.50;;;;;;5094691;28;19912;-42
2022/12/23 05:32:16;;;;;;;;;;;20.80;85.60;;;;;;5094329;28;19996;-44
2022/12/23 05:34:41;;;;;;;;;;;20.80;85.50;;;;;;5094177;28;19909;-43
2022/12/23 05:37:07;;;;;;;;;;;20.80;86.20;;;;;;5093748;28;20395;-42
2022/12/23 05:39:32;;;;;;;;;;;20.70;86.40;;;;;;5093958;28;19990;-46
2022/12/23 05:41:58;;;;;;;;;;;20.70;86.60;;;;;;5093731;28;20298;-42
2022/12/23 05:44:23;;;;;;;;;;;20.70;86.60;;;;;;5094235;28;19918;-42
2022/12/23 05:46:49;;;;;;;;;;;20.70;86.70;;;;;;5094884;28;19908;-42
2022/12/23 05:49:14;;;;;;;;;;;20.70;86.70;;;;;;5095775;28;19974;-42
2022/12/23 05:51:40;;;;;;;;;;;20.70;86.60;;;;;;5095782;28;20046;-46
2022/12/23 05:54:05;;;;;;;;;;;20.70;86.60;;;;;;5095663;28;19915;-44
2022/12/23 05:56:31;;;;;;;;;;;20.60;86.50;;;;;;5095899;28;20351;-43
2022/12/23 05:58:56;;;;;;;;;;;20.70;86.50;;;;;;5095831;28;19958;-44
2022/12/23 06:01:21;;;;;;;;;;;20.70;86.50;;;;;;5095915;28;19915;-42
2022/12/23 06:03:47;;;;;;;;;;;20.60;86.60;;;;;;5078155;28;20002;-45
2022/12/23 06:06:12;;;;;;;;;;;20.60;86.50;;;;;;5095654;28;19952;-44
2022/12/23 06:08:38;;;;;;;;;;;20.60;86.50;;;;;;5095952;28;19931;-44
2022/12/23 06:11:04;;;;;;;;;;;20.70;86.60;;;;;;5095478;28;20061;-46
2022/12/23 06:13:29;;;;;;;;;;;20.70;86.50;;;;;;5095476;28;19912;-42
2022/12/23 06:15:55;;;;;;;;;;;20.70;86.60;;;;;;5095488;28;20258;-42
2022/12/23 06:18:20;;;;;;;;;;;20.70;86.60;;;;;;5095220;28;19908;-42
2022/12/23 06:20:46;;;;;;;;;;;20.70;86.50;;;;;;5095442;28;19915;-43
2022/12/23 06:23:12;;;;;;;;;;;20.70;86.60;;;;;;5095656;28;19908;-44
2022/12/23 06:25:37;;;;;;;;;;;20.70;86.50;;;;;;5095256;28;19908;-45
2022/12/23 06:28:03;;;;;;;;;;;20.70;86.60;;;;;;5095018;28;19953;-42
2022/12/23 06:30:28;;;;;;;;;;;20.70;86.60;;;;;;5094851;28;19916;-42
2022/12/23 06:32:54;;;;;;;;;;;20.70;86.50;;;;;;5077358;28;19973;-44
2022/12/23 06:35:19;;;;;;;;;;;20.70;86.50;;;;;;5095247;28;19908;-42
2022/12/23 06:37:45;;;;;;;;;;;20.70;86.50;;;;;;5095046;28;20294;-43
2022/12/23 06:40:10;;;;;;;;;;;20.70;86.60;;;;;;5094619;28;20007;-47
2022/12/23 06:42:36;;;;;;;;;;;20.70;86.60;;;;;;5094626;28;19908;-45
2022/12/23 06:45:01;;;;;;;;;;;20.70;86.60;;;;;;5094629;28;20266;-45
2022/12/23 06:47:27;;;;;;;;;;;20.60;86.50;;;;;;5076659;28;19908;-43
2022/12/23 06:49:53;;;;;;;;;;;20.60;86.60;;;;;;5094735;28;20060;-45
2022/12/23 06:52:19;;;;;;;;;;;20.60;86.60;;;;;;5094781;28;19965;-44
2022/12/23 06:54:44;;;;;;;;;;;20.60;86.70;;;;;;5094731;28;19912;-45
2022/12/23 06:57:10;;;;;;;;;;;20.60;86.60;;;;;;5094679;28;19975;-43
2022/12/23 06:59:35;;;;;;;;;;;20.60;86.60;;;;;;5094150;28;19960;-43
2022/12/23 07:02:01;;;;;;;;;;;20.60;86.70;;;;;;5094624;28;20381;-48
2022/12/23 07:04:27;;;;;;;;;;;20.60;86.70;;;;;;5094593;28;20270;-43
2022/12/23 07:06:52;;;;;;;;;;;20.60;86.70;;;;;;5094578;28;20011;-42
2022/12/23 07:09:18;;;;;;;;;;;20.60;86.70;;;;;;5094543;28;19908;-46
2022/12/23 07:11:43;;;;;;;;;;;20.60;86.80;;;;;;5076410;28;19935;-44
2022/12/23 07:14:09;;;;;;;;;;;20.60;87.00;;;;;;5094540;28;19908;-43
2022/12/23 07:16:34;;;;;;;;;;;20.60;87.00;;;;;;5094496;28;19908;-43
2022/12/23 07:19:00;;;;;;;;;;;20.50;86.90;;;;;;5092066;28;20010;-44
2022/12/23 07:21:25;;;;;;;;;;;20.60;86.90;;;;;;5074228;28;19916;-44
2022/12/23 07:23:51;;;;;;;;;;;20.60;87.10;;;;;;5111958;28;20357;-41
2022/12/23 07:26:16;;;;;;;;;;;20.50;83.70;;;;;;5113595;28;19951;-50
2022/12/23 07:28:42;;;;;;;;;;;20.30;82.00;;;;;;5091413;28;20365;-48
2022/12/23 07:31:08;;;;;;;;;;;20.30;83.10;;;;;;5092459;28;19920;-40
2022/12/23 07:33:33;;;;;;;;;;;20.30;83.50;;;;;;5094284;28;19923;-42
2022/12/23 07:35:59;;;;;;;;;;;20.30;83.50;;;;;;5092174;28;19908;-44
2022/12/23 07:38:25;;;;;;;;;;;20.30;85.90;;;;;;5093778;28;20420;-40
2022/12/23 07:40:50;;;;;;;;;;;20.30;86.40;;;;;;5093881;28;19930;-41
2022/12/23 07:43:16;;;;;;;;;;;20.40;86.70;;;;;;5093993;28;19908;-45
2022/12/23 07:45:41;;;;;;;;;;;20.40;86.90;;;;;;5094432;28;19962;-41
2022/12/23 07:48:07;;;;;;;;;;;20.40;87.10;;;;;;5093831;28;19912;-47
2022/12/23 07:50:32;;;;;;;;;;;20.40;87.10;;;;;;5094021;28;19913;-42
2022/12/23 07:52:58;;;;;;;;;;;20.40;87.00;;;;;;5093638;28;19921;-42
2022/12/23 07:55:23;;;;;;;;;;;20.40;87.20;;;;;;5105898;28;19942;-41
2022/12/23 07:57:49;;;;;;;;;;;20.40;87.20;;;;;;5073392;28;19908;-42
2022/12/23 08:00:15;;;;;;;;;;;20.40;87.20;;;;;;5073850;28;19916;-43
2022/12/23 08:02:41;;;;;;;;;;;20.40;87.30;;;;;;5081362;28;19912;-42
2022/12/23 08:05:07;;;;;;;;;;;20.50;87.20;;;;;;5092834;28;19908;-42
2022/12/23 08:07:33;;;;;;;;;;;20.50;86.80;;;;;;5089919;28;19912;-42
2022/12/23 08:09:58;;;;;;;;;;;20.40;86.90;;;;;;5093196;28;19923;-42
2022/12/23 08:12:24;;;;;;;;;;;20.40;87.10;;;;;;5100487;28;20397;-42
2022/12/23 08:14:51;;;;;;;;;;;20.50;87.20;;;;;;5093270;28;19908;-41
2022/12/23 08:17:17;;;;;;;;;;;20.50;87.00;;;;;;5106746;28;19972;-40
2022/12/23 08:19:43;;;;;;;;;;;20.40;81.50;;;;;;5092502;28;19912;-44
2022/12/23 08:22:08;;;;;;;;;;;20.40;84.20;;;;;;5100928;28;20311;-41
2022/12/23 08:24:33;;;;;;;;;;;20.40;86.20;;;;;;5111225;28;20434;-44
2022/12/23 08:26:59;;;;;;;;;;;20.20;81.30;;;;;;5103148;28;20274;-54
2022/12/23 08:29:24;;;;;;;;;;;20.20;82.80;;;;;;5092619;28;19908;-43
2022/12/23 08:31:50;;;;;;;;;;;20.20;85.50;;;;;;5111156;28;20011;-44
2022/12/23 08:34:16;;;;;;;;;;;20.30;86.90;;;;;;5097868;28;19919;-44
2022/12/23 08:36:41;;;;;;;;;;;20.30;87.20;;;;;;5097783;28;19919;-43
2022/12/23 08:39:08;;;;;;;;;;;20.30;87.10;;;;;;5097523;28;19920;-43
2022/12/23 08:41:44;;;;;;;;;;;20.30;86.90;;;;;;5097554;28;19916;-43
2022/12/23 08:44:10;;;;;;;;;;;20.30;86.90;;;;;;5097077;28;20359;-45
2022/12/23 08:46:36;;;;;;;;;;;20.30;86.80;;;;;;5096942;28;19937;-44
2022/12/23 08:49:01;;;;;;;;;;;20.30;86.80;;;;;;5096996;28;19908;-42
2022/12/23 08:51:27;;;;;;;;;;;20.30;86.80;;;;;;5096630;28;19918;-44
2022/12/23 08:53:55;;;;;;;;;;;20.30;86.80;;;;;;5097035;28;19912;-42
2022/12/23 08:56:21;;;;;;;;;;;20.30;86.80;;;;;;5096813;28;19969;-43
2022/12/23 08:58:48;;;;;;;;;;;20.30;86.80;;;;;;5096473;28;19961;-44
2022/12/23 09:01:14;;;;;;;;;;;20.30;86.80;;;;;;5094342;28;19912;-48
2022/12/23 09:03:40;;;;;;;;;;;20.30;86.90;;;;;;5096507;28;19915;-44
2022/12/23 09:06:10;;;;;;;;;;;20.30;86.80;;;;;;5096470;28;19908;-43
2022/12/23 09:08:36;;;;;;;;;;;20.30;86.80;;;;;;5093393;28;19935;-43
2022/12/23 09:11:02;;;;;;;;;;;20.30;86.80;;;;;;5092626;28;20359;-42
2022/12/23 09:13:27;;;;;;;;;;;20.30;86.90;;;;;;5085003;28;19912;-43
2022/12/23 09:15:53;;;;;;;;;;;20.30;86.90;;;;;;5096826;28;19921;-43
2022/12/23 09:18:18;;;;;;;;;;;20.30;86.90;;;;;;5101961;28;20361;-45
2022/12/23 09:20:44;;;;;;;;;;;20.30;86.90;;;;;;5091917;28;19916;-45
2022/12/23 09:23:09;;;;;;;;;;;20.30;86.90;;;;;;5091312;28;19995;-43
2022/12/23 09:25:35;;;;;;;;;;;20.30;86.80;;;;;;5095058;28;19918;-42
2022/12/23 09:28:01;;;;;;;;;;;20.30;86.80;;;;;;5096224;28;19912;-43
2022/12/23 09:30:26;;;;;;;;;;;20.30;86.90;;;;;;5092674;28;19923;-43
2022/12/23 09:32:52;;;;;;;;;;;20.30;86.80;;;;;;5092705;28;19951;-43
2022/12/23 09:35:17;;;;;;;;;;;20.30;86.80;;;;;;5092748;28;20363;-45
2022/12/23 09:37:43;;;;;;;;;;;20.30;86.80;;;;;;5103437;28;19919;-43
2022/12/23 09:40:12;;;;;;;;;;;20.30;86.80;;;;;;5113826;28;19915;-44
2022/12/23 09:42:45;;;;;;;;;;;20.30;86.80;;;;;;5094933;28;19957;-44
2022/12/23 09:45:11;;;;;;;;;;;20.30;86.80;;;;;;5104812;28;19973;-44
2022/12/23 09:47:38;;;;;;;;;;;20.30;86.10;;;;;;5095746;28;19999;-41
2022/12/23 09:50:11;;;;;;;;;;;20.30;87.00;;;;;;5095447;28;20358;-44
2022/12/23 09:52:52;;;;;;;;;;;20.30;87.00;;;;;;5081508;28;20282;-42
2022/12/23 09:55:18;;;;;;;;;;;20.30;87.00;;;;;;5095428;28;20375;-43
2022/12/23 09:57:46;;;;;;;;;;;20.30;86.90;;;;;;5092966;28;20055;-42
2022/12/23 10:00:16;;;;;;;;;;;20.30;87.20;;;;;;5083836;28;19908;-42
2022/12/23 10:02:44;;;;;;;;;;;20.30;87.70;;;;;;5095326;28;20366;-42
2022/12/23 10:05:20;;;;;;;;;;;20.40;87.90;;;;;;5095624;28;19908;-43
2022/12/23 10:07:50;;;;;;;;;;;20.40;87.80;;;;;;5095174;28;19913;-43
2022/12/23 10:10:17;;;;;;;;;;;20.40;88.00;;;;;;5098657;28;19916;-43
2022/12/23 10:12:48;;;;;;;;;;;20.40;88.00;;;;;;5110722;28;19961;-44
2022/12/23 10:15:18;;;;;;;;;;;20.40;88.10;;;;;;5094684;28;20336;-42
2022/12/23 10:17:45;;;;;;;;;;;20.40;87.90;;;;;;5094092;28;19937;-43
2022/12/23 10:20:13;;;;;;;;;;;20.40;88.00;;;;;;5094032;28;20274;-43
2022/12/23 10:22:41;;;;;;;;;;;20.40;88.60;;;;;;5094286;28;19935;-46
2022/12/23 10:25:12;;;;;;;;;;;20.40;88.00;;;;;;5094914;28;19920;-42
2022/12/23 10:27:39;;;;;;;;;;;20.40;87.90;;;;;;5106346;28;20000;-46
2022/12/23 10:30:12;;;;;;;;;;;20.40;87.90;;;;;;5105116;28;20013;-44
2022/12/23 10:32:41;;;;;;;;;;;20.20;86.20;;;;;;5103900;28;19966;-42
2022/12/23 10:35:25;;;;;;;;;;;20.30;87.50;;;;;;5106594;28;19912;-43
2022/12/23 10:37:54;;;;;;;;;;;20.30;87.50;;;;;;5093891;28;19928;-44
2022/12/23 10:40:31;;;;;;;;;;;20.30;87.50;;;;;;5108373;28;19916;-45
2022/12/23 10:43:14;;;;;;;;;;;20.30;87.40;;;;;;5105060;28;20372;-43
2022/12/23 10:45:45;;;;;;;;;;;20.30;87.40;;;;;;5105894;28;19978;-42
2022/12/23 10:48:16;;;;;;;;;;;20.30;87.40;;;;;;5092047;28;20355;-43
2022/12/23 10:50:48;;;;;;;;;;;20.30;87.40;;;;;;5104526;28;19919;-44
2022/12/23 10:53:19;;;;;;;;;;;20.20;86.20;;;;;;5109631;28;20286;-46
2022/12/23 10:55:45;;;;;;;;;;;20.20;87.10;;;;;;5114107;28;19920;-45
2022/12/23 10:58:13;;;;;;;;;;;20.30;87.30;;;;;;5114719;28;19923;-47
2022/12/23 11:00:41;;;;;;;;;;;20.30;87.30;;;;;;5114899;28;20374;-43
2022/12/23 11:03:12;;;;;;;;;;;20.30;87.20;;;;;;5114227;28;19912;-43
2022/12/23 11:05:38;;;;;;;;;;;20.30;87.20;;;;;;5114621;28;19908;-44
2022/12/23 11:08:03;;;;;;;;;;;20.20;87.20;;;;;;5114613;28;19914;-43
2022/12/23 11:10:31;;;;;;;;;;;20.30;87.20;;;;;;5114555;28;20388;-43
2022/12/23 11:12:57;;;;;;;;;;;20.30;87.10;;;;;;5114810;28;19954;-44
2022/12/23 11:15:24;;;;;;;;;;;20.30;87.10;;;;;;5114439;28;19943;-44
2022/12/23 11:18:03;;;;;;;;;;;20.30;87.10;;;;;;5113992;28;20338;-44
2022/12/23 11:20:29;;;;;;;;;;;20.20;87.10;;;;;;5114355;28;19908;-45
2022/12/23 11:23:01;;;;;;;;;;;20.20;87.10;;;;;;5114187;28;19956;-44
2022/12/23 11:25:27;;;;;;;;;;;20.20;87.10;;;;;;5114214;28;20049;-43
2022/12/23 11:27:54;;;;;;;;;;;20.20;87.00;;;;;;5114540;28;19912;-43
2022/12/23 11:30:20;;;;;;;;;;;20.20;87.00;;;;;;5114445;28;19912;-45
2022/12/23 11:32:45;;;;;;;;;;;20.20;87.00;;;;;;5114743;28;19956;-43
2022/12/23 11:35:26;;;;;;;;;;;20.20;86.90;;;;;;5114309;28;19912;-43
2022/12/23 11:37:52;;;;;;;;;;;20.20;87.00;;;;;;5114098;28;20389;-45
2022/12/23 11:40:25;;;;;;;;;;;20.20;86.90;;;;;;5114392;28;19915;-44
2022/12/23 11:42:59;;;;;;;;;;;20.20;86.90;;;;;;5114420;28;19994;-42
2022/12/23 11:45:26;;;;;;;;;;;20.20;86.90;;;;;;5113835;28;19908;-43
2022/12/23 11:47:52;;;;;;;;;;;20.20;86.90;;;;;;5114100;28;19915;-41
2022/12/23 11:50:26;;;;;;;;;;;20.20;86.90;;;;;;5114434;28;20285;-43
2022/12/23 11:52:54;;;;;;;;;;;20.20;86.80;;;;;;5114248;28;19970;-42
2022/12/23 11:55:24;;;;;;;;;;;20.20;86.80;;;;;;5114225;28;19915;-44
2022/12/23 11:57:51;;;;;;;;;;;20.20;86.90;;;;;;5114310;28;19907;-44
2022/12/23 12:00:19;;;;;;;;;;;20.20;86.80;;;;;;5113812;28;19907;-43
2022/12/23 12:02:47;;;;;;;;;;;20.20;86.80;;;;;;5114146;28;19959;-44
2022/12/23 12:05:20;;;;;;;;;;;20.20;86.80;;;;;;5115441;28;19908;-45
2022/12/23 12:07:47;;;;;;;;;;;20.20;86.80;;;;;;5118474;28;20358;-43
2022/12/23 12:10:24;;;;;;;;;;;20.20;86.80;;;;;;5118167;28;20350;-44
2022/12/23 12:13:01;;;;;;;;;;;20.20;86.80;;;;;;5118394;28;19915;-43
2022/12/23 12:15:32;;;;;;;;;;;20.20;86.80;;;;;;5099975;28;19957;-45
2022/12/23 12:17:58;;;;;;;;;;;20.20;86.80;;;;;;5117858;28;19950;-47
2022/12/23 12:20:29;;;;;;;;;;;20.20;86.70;;;;;;5118173;28;19947;-44
2022/12/23 12:22:59;;;;;;;;;;;20.10;86.70;;;;;;5118044;28;19918;-45
2022/12/23 12:25:40;;;;;;;;;;;20.10;86.70;;;;;;5117723;28;19912;-43
2022/12/23 12:28:09;;;;;;;;;;;20.10;86.70;;;;;;5117887;28;19907;-45
2022/12/23 12:30:48;;;;;;;;;;;20.10;86.70;;;;;;5117702;28;19919;-45
2022/12/23 12:33:22;;;;;;;;;;;20.10;86.70;;;;;;5117684;28;19912;-45
2022/12/23 12:35:50;;;;;;;;;;;20.10;86.70;;;;;;5117377;28;20379;-48
2022/12/23 12:38:22;;;;;;;;;;;20.20;86.70;;;;;;5117708;28;19927;-44
2022/12/23 12:40:53;;;;;;;;;;;20.10;86.60;;;;;;5117659;28;19959;-44
2022/12/23 12:43:30;;;;;;;;;;;20.10;86.60;;;;;;5117536;28;19907;-44
2022/12/23 12:46:09;;;;;;;;;;;20.10;86.60;;;;;;5116793;28;21529;-45
2022/12/23 12:48:40;;;;;;;;;;;20.10;86.60;;;;;;5117290;28;19937;-45
2022/12/23 12:51:35;;;;;;;;;;;20.10;86.60;;;;;;5116831;28;19957;-41
2022/12/23 12:54:03;;;;;;;;;;;20.10;86.60;;;;;;5043741;28;19917;-41
2022/12/23 12:56:35;;;;;;;;;;;20.10;86.70;;;;;;5116992;28;20323;-42
2022/12/23 12:59:01;;;;;;;;;;;20.10;86.70;;;;;;5117037;28;19911;-42
2022/12/23 13:01:32;;;;;;;;;;;20.10;86.70;;;;;;5098835;28;19915;-43
2022/12/23 13:04:33;;;;;;;;;;;20.10;86.70;;;;;;5116928;28;19907;-43
2022/12/23 13:07:07;;;;;;;;;;;20.10;86.60;;;;;;5034116;28;19992;-42
2022/12/23 13:09:32;;;;;;;;;;;20.10;86.70;;;;;;5103861;28;19915;-42
2022/12/23 13:12:06;;;;;;;;;;;20.10;86.60;;;;;;5116925;28;19912;-44
2022/12/23 13:14:50;;;;;;;;;;;20.00;86.60;;;;;;5117062;28;19998;-43
2022/12/23 13:17:20;;;;;;;;;;;20.00;86.60;;;;;;5116122;28;19908;-44
2022/12/23 13:19:54;;;;;;;;;;;20.00;86.60;;;;;;5098476;28;19908;-42
2022/12/23 13:22:23;;;;;;;;;;;20.00;86.70;;;;;;5116516;28;19916;-47
2022/12/23 13:24:59;;;;;;;;;;;20.00;86.70;;;;;;5116685;28;19908;-45
2022/12/23 13:27:34;;;;;;;;;;;20.00;86.70;;;;;;5116710;28;19927;-42
2022/12/23 13:30:02;;;;;;;;;;;20.00;86.70;;;;;;5116564;28;19912;-41
2022/12/23 13:32:42;;;;;;;;;;;20.00;86.60;;;;;;5116566;28;19912;-42
2022/12/23 13:35:17;;;;;;;;;;;20.00;86.70;;;;;;5116572;28;19908;-42
2022/12/23 13:37:56;;;;;;;;;;;20.00;86.70;;;;;;5116312;28;19920;-42
2022/12/23 13:40:30;;;;;;;;;;;20.00;86.60;;;;;;5098102;28;20011;-42
2022/12/23 13:42:59;;;;;;;;;;;20.00;86.70;;;;;;5116230;28;19998;-42
2022/12/23 13:45:26;;;;;;;;;;;20.00;86.70;;;;;;5097755;28;19912;-42
2022/12/23 13:47:55;;;;;;;;;;;20.00;86.70;;;;;;5116071;28;20247;-42
2022/12/23 13:50:26;;;;;;;;;;;20.00;86.60;;;;;;5116182;28;19953;-43
2022/12/23 13:53:11;;;;;;;;;;;20.00;87.20;;;;;;5115808;28;20358;-42
2022/12/23 13:55:51;;;;;;;;;;;20.00;86.60;;;;;;5115724;28;19954;-42
2022/12/23 13:58:19;;;;;;;;;;;20.00;86.60;;;;;;5115435;28;19916;-43
2022/12/23 14:00:45;;;;;;;;;;;20.00;86.60;;;;;;5115578;28;20018;-43
2022/12/23 14:03:11;;;;;;;;;;;20.00;86.60;;;;;;5115358;28;19954;-42
2022/12/23 14:05:40;;;;;;;;;;;20.00;86.60;;;;;;5115613;28;19908;-44
2022/12/23 14:08:18;;;;;;;;;;;20.00;86.60;;;;;;5115791;28;19914;-43
2022/12/23 14:10:58;;;;;;;;;;;19.90;86.60;;;;;;5115807;28;20349;-45
2022/12/23 14:13:36;;;;;;;;;;;19.90;86.60;;;;;;5115919;28;20006;-43
2022/12/23 14:16:02;;;;;;;;;;;19.90;86.60;;;;;;5115141;28;19908;-43
2022/12/23 14:18:27;;;;;;;;;;;19.90;86.60;;;;;;5115560;28;20347;-44
2022/12/23 14:21:19;;;;;;;;;;;19.90;86.60;;;;;;5115255;28;20323;-42
2022/12/23 14:23:44;;;;;;;;;;;19.90;86.60;;;;;;5115822;28;19912;-44
2022/12/23 14:26:36;;;;;;;;;;;19.90;86.60;;;;;;5115352;28;19908;-44
2022/12/23 14:29:20;;;;;;;;;;;19.90;86.60;;;;;;5109928;28;20274;-42
2022/12/23 14:31:52;;;;;;;;;;;19.90;86.60;;;;;;5115124;28;19915;-43
2022/12/23 14:34:17;;;;;;;;;;;19.90;86.60;;;;;;5115733;28;20274;-42
2022/12/23 14:37:02;;;;;;;;;;;19.90;86.60;;;;;;5114879;28;19915;-44
2022/12/23 14:39:33;;;;;;;;;;;19.90;86.70;;;;;;5115508;28;19933;-43
2022/12/23 14:41:59;;;;;;;;;;;19.90;86.60;;;;;;5115151;28;19908;-45
2022/12/23 14:44:36;;;;;;;;;;;19.90;86.60;;;;;;5115295;28;19972;-44
2022/12/23 14:47:03;;;;;;;;;;;19.90;86.60;;;;;;5115249;28;20215;-44
2022/12/23 14:49:33;;;;;;;;;;;19.90;86.60;;;;;;5114820;28;20289;-44
2022/12/23 14:52:17;;;;;;;;;;;19.90;86.60;;;;;;5114761;28;20259;-42